Oakland, Arkansas
Current Conditions -  °F | °C
As of 3:53 PM on Tuesday 25 Nov 2014 (Local Time) from KBPK Reporting Station
Clear Clear  
Wind Chill:   Ceiling: Unl
Heat Index:   Visibility: 10mi
Dew Point: -9°   Wind: 5mph
Humidity: 30%   Direction: 330°NNW
Pressure: 30.14"   Gusts: NA
Location:  36.46°N, 92.57°W
Report Text: KBPK 252153Z AUTO 33004KT 10SM CLR 08/M09 A3014 RMK AO2 SLP210 T00781089
Loading
Personal Weather Stations






























Interactive Weather Map New forecast layout! Learn more

10-Day Weather Forecast

Advertisements
Track Severe Weather on mobile